createdAt,value
2018-12-01T00:01:01.370Z,92.30
2018-12-01T00:03:30.775Z,92.30
2018-12-01T00:06:15.862Z,92.60
2018-12-01T00:08:45.297Z,92.70
2018-12-01T00:11:14.714Z,92.80
2018-12-01T00:13:44.111Z,92.80
2018-12-01T00:16:13.606Z,92.60
2018-12-01T00:18:43.235Z,92.30
2018-12-01T00:21:12.826Z,92.20
2018-12-01T00:23:43.166Z,92.20
2018-12-01T00:26:11.665Z,92.20
2018-12-01T00:28:46.150Z,92.20
2018-12-01T00:31:15.571Z,91.70
2018-12-01T00:33:44.966Z,91.50
2018-12-01T00:36:14.374Z,91.40
2018-12-01T00:38:43.783Z,91.60
2018-12-01T00:41:13.183Z,91.70
2018-12-01T00:43:42.587Z,91.80
2018-12-01T00:46:12.067Z,91.60
2018-12-01T00:48:41.469Z,91.40
2018-12-01T00:51:10.851Z,91.60
2018-12-01T00:53:40.259Z,91.70
2018-12-01T00:56:09.675Z,91.70
2018-12-01T00:58:39.059Z,92.10
2018-12-01T01:01:08.464Z,92.10
2018-12-01T01:03:37.858Z,92.10
2018-12-01T01:06:07.263Z,91.90
2018-12-01T01:08:36.659Z,92.20
2018-12-01T01:11:06.054Z,92.40
2018-12-01T01:13:35.459Z,92.40
2018-12-01T01:16:05.442Z,92.50
2018-12-01T01:18:34.855Z,92.10
2018-12-01T01:21:04.558Z,92.10
2018-12-01T01:23:33.974Z,92.00
2018-12-01T01:26:03.528Z,92.20
2018-12-01T01:28:37.966Z,91.90
2018-12-01T01:31:07.399Z,92.00
2018-12-01T01:33:36.797Z,92.30
2018-12-01T01:36:06.301Z,92.50
2018-12-01T01:38:35.699Z,92.70
2018-12-01T01:41:06.843Z,92.90
2018-12-01T01:43:36.991Z,93.00
2018-12-01T01:46:06.390Z,93.20
2018-12-01T01:48:35.829Z,93.30
2018-12-01T01:51:05.496Z,93.10
2018-12-01T01:53:34.906Z,93.10
2018-12-01T01:56:04.650Z,92.90
2018-12-01T01:58:34.052Z,92.60
2018-12-01T02:01:03.558Z,92.30
2018-12-01T02:03:37.994Z,92.50
2018-12-01T02:06:07.395Z,92.50
2018-12-01T02:08:36.892Z,92.30
2018-12-01T02:11:06.395Z,92.10
2018-12-01T02:13:35.894Z,92.30
2018-12-01T02:16:05.706Z,92.50
2018-12-01T02:18:35.121Z,92.80
2018-12-01T02:21:04.754Z,92.90
2018-12-01T02:23:34.158Z,92.90
2018-12-01T02:26:03.623Z,92.90
2018-12-01T02:28:32.982Z,92.90
2018-12-01T02:31:02.655Z,92.80
2018-12-01T02:33:32.043Z,92.90
2018-12-01T02:36:01.467Z,92.90
2018-12-01T02:38:30.955Z,93.00
2018-12-01T02:41:00.372Z,92.70
2018-12-01T02:43:29.767Z,92.70
2018-12-01T02:46:10.617Z,92.50
2018-12-01T02:48:40.013Z,92.20
2018-12-01T02:51:09.397Z,92.10
2018-12-01T02:53:38.802Z,92.10
2018-12-01T02:56:08.227Z,92.20
2018-12-01T02:58:37.614Z,92.40
2018-12-01T03:01:07.014Z,92.50
2018-12-01T03:03:36.420Z,92.30
2018-12-01T03:06:05.830Z,92.20
2018-12-01T03:08:35.239Z,92.30
2018-12-01T03:11:04.726Z,92.10
2018-12-01T03:13:34.144Z,92.10
2018-12-01T03:16:03.539Z,92.10
2018-12-01T03:18:32.926Z,92.00
2018-12-01T03:21:02.322Z,92.40
2018-12-01T03:23:36.818Z,92.30
2018-12-01T03:26:07.250Z,92.90
2018-12-01T03:28:36.671Z,93.10
2018-12-01T03:31:06.093Z,93.00
2018-12-01T03:33:35.498Z,93.00
2018-12-01T03:36:05.265Z,92.70
2018-12-01T03:38:34.699Z,92.80
2018-12-01T03:41:04.142Z,92.30
2018-12-01T03:43:33.623Z,91.90
2018-12-01T03:46:03.135Z,92.30
2018-12-01T03:48:37.551Z,92.10
2018-12-01T03:51:07.059Z,92.40
2018-12-01T03:53:36.462Z,92.80
2018-12-01T03:56:06.170Z,92.60
2018-12-01T03:58:35.533Z,92.20
2018-12-01T04:01:05.046Z,91.90
2018-12-01T04:03:34.482Z,91.90
2018-12-01T04:06:03.870Z,92.20
2018-12-01T04:08:33.388Z,92.60
2018-12-01T04:11:02.762Z,92.90
2018-12-01T04:13:32.191Z,92.70
2018-12-01T04:16:01.591Z,92.90
2018-12-01T04:18:31.001Z,92.70
2018-12-01T04:21:00.418Z,93.10
2018-12-01T04:23:29.842Z,93.20
2018-12-01T04:25:59.242Z,93.00
2018-12-01T04:28:28.640Z,92.80
2018-12-01T04:30:58.090Z,92.70
2018-12-01T04:33:27.533Z,92.50
2018-12-01T04:35:56.994Z,92.90
2018-12-01T04:38:26.431Z,92.50
2018-12-01T04:40:55.927Z,92.70
2018-12-01T04:43:25.299Z,92.60
2018-12-01T04:45:54.698Z,92.40
2018-12-01T04:48:24.138Z,92.20
2018-12-01T04:50:53.507Z,91.70
2018-12-01T04:53:22.906Z,91.70
2018-12-01T04:55:53.095Z,91.70
2018-12-01T04:58:22.530Z,91.90
2018-12-01T05:00:51.966Z,92.10
2018-12-01T05:03:21.378Z,92.50
2018-12-01T05:05:55.886Z,92.30
2018-12-01T05:08:25.282Z,92.50
2018-12-01T05:10:54.678Z,92.60
2018-12-01T05:13:24.094Z,92.50
2018-12-01T05:15:53.510Z,92.30
2018-12-01T05:18:22.898Z,91.90
2018-12-01T05:20:52.299Z,91.80
2018-12-01T05:23:21.727Z,91.50
2018-12-01T05:25:56.222Z,91.30
2018-12-01T05:28:25.627Z,91.10
2018-12-01T05:30:55.028Z,91.10
2018-12-01T05:33:24.423Z,91.20
2018-12-01T05:35:54.048Z,91.00
2018-12-01T05:38:23.446Z,91.10
2018-12-01T05:40:52.838Z,91.20
2018-12-01T05:43:22.246Z,91.20
2018-12-01T05:45:51.673Z,91.30
2018-12-01T05:48:21.091Z,91.50
2018-12-01T05:50:50.502Z,91.60
2018-12-01T05:53:19.903Z,91.90
2018-12-01T05:55:49.311Z,92.00
2018-12-01T05:58:18.701Z,91.90
2018-12-01T06:00:48.103Z,91.90
2018-12-01T06:03:17.511Z,91.90
2018-12-01T06:05:46.910Z,92.10
2018-12-01T06:08:21.390Z,92.40
2018-12-01T06:10:51.114Z,92.80
2018-12-01T06:13:20.514Z,93.20
2018-12-01T06:15:49.982Z,93.50
2018-12-01T06:18:19.633Z,93.60
2018-12-01T06:20:54.138Z,93.50
2018-12-01T06:23:23.615Z,93.40
2018-12-01T06:25:53.145Z,93.30
2018-12-01T06:28:22.515Z,93.10
2018-12-01T06:30:51.974Z,93.10
2018-12-01T06:33:21.391Z,93.40
2018-12-01T06:35:50.796Z,93.40
2018-12-01T06:38:20.203Z,93.60
2018-12-01T06:40:54.666Z,93.70
2018-12-01T06:43:24.078Z,93.80
2018-12-01T06:45:53.486Z,93.90
2018-12-01T06:48:22.878Z,93.90
2018-12-01T06:50:52.281Z,94.10
2018-12-01T06:53:21.702Z,94.10
2018-12-01T06:55:51.118Z,94.10
2018-12-01T06:58:20.906Z,94.20
2018-12-01T07:00:50.278Z,94.20
2018-12-01T07:03:19.675Z,94.10
2018-12-01T07:05:49.091Z,94.10
2018-12-01T07:08:18.504Z,94.20
2018-12-01T07:10:47.906Z,94.30
2018-12-01T07:13:17.648Z,94.50
2018-12-01T07:15:47.047Z,94.60
2018-12-01T07:18:27.962Z,94.60
2018-12-01T07:20:57.363Z,94.90
2018-12-01T07:23:27.030Z,94.50
2018-12-01T07:25:56.446Z,94.40
2018-12-01T07:28:25.870Z,94.40
2018-12-01T07:30:55.306Z,94.40
2018-12-01T07:33:24.707Z,94.00
2018-12-01T07:35:54.099Z,94.00
2018-12-01T07:38:23.510Z,93.50
2018-12-01T07:40:53.134Z,93.70
2018-12-01T07:43:22.559Z,93.30
2018-12-01T07:45:52.043Z,93.60
2018-12-01T07:48:26.472Z,93.60
2018-12-01T07:50:56.192Z,93.60
2018-12-01T07:53:25.598Z,93.40
2018-12-01T07:55:55.079Z,93.10
2018-12-01T07:58:24.450Z,93.00
2018-12-01T08:00:53.862Z,92.90
2018-12-01T08:03:23.646Z,93.00
2018-12-01T08:05:53.078Z,92.90
2018-12-01T08:08:22.466Z,92.70
2018-12-01T08:10:51.867Z,92.50
2018-12-01T08:13:21.289Z,92.30
2018-12-01T08:15:50.667Z,92.00
2018-12-01T08:18:20.082Z,91.60
2018-12-01T08:20:49.494Z,91.60
2018-12-01T08:23:18.882Z,91.90
2018-12-01T08:25:48.286Z,91.40
2018-12-01T08:28:20.411Z,91.60
2018-12-01T08:30:50.443Z,91.40
2018-12-01T08:33:20.346Z,91.50
2018-12-01T08:35:49.774Z,91.50
2018-12-01T08:38:19.173Z,91.40
2018-12-01T08:40:48.567Z,91.50
2018-12-01T08:43:17.978Z,91.20
2018-12-01T08:45:47.376Z,91.10
2018-12-01T08:48:16.779Z,90.80
2018-12-01T08:50:46.360Z,90.50
2018-12-01T08:53:15.632Z,90.30
2018-12-01T08:55:45.035Z,90.30
2018-12-01T08:58:14.472Z,90.20
2018-12-01T09:00:43.857Z,90.50
2018-12-01T09:03:14.961Z,90.30
2018-12-01T09:05:44.355Z,90.10
2018-12-01T09:08:13.746Z,90.00
2018-12-01T09:10:43.434Z,89.80
2018-12-01T09:13:12.831Z,90.20
2018-12-01T09:15:42.227Z,90.00
2018-12-01T09:18:11.634Z,89.40
2018-12-01T09:20:46.142Z,89.20
2018-12-01T09:23:15.587Z,89.50
2018-12-01T09:25:44.983Z,89.00
2018-12-01T09:28:14.386Z,88.50
2018-12-01T09:30:43.812Z,88.40
2018-12-01T09:33:13.219Z,87.40
2018-12-01T09:35:42.642Z,88.20
2018-12-01T09:38:12.045Z,87.30
2018-12-01T09:40:41.450Z,86.70
2018-12-01T09:43:10.866Z,86.50
2018-12-01T09:45:40.271Z,86.60
2018-12-01T09:48:09.696Z,85.70
2018-12-01T09:50:39.104Z,85.70
2018-12-01T09:53:08.503Z,85.70
2018-12-01T09:55:37.942Z,85.00
2018-12-01T09:58:07.357Z,85.60
2018-12-01T10:00:36.750Z,84.20
2018-12-01T10:03:07.648Z,83.50
2018-12-01T10:05:37.069Z,84.10
2018-12-01T10:08:07.172Z,83.00
2018-12-01T10:10:36.777Z,82.30
2018-12-01T10:13:06.166Z,82.40
2018-12-01T10:15:36.859Z,81.80
2018-12-01T10:18:07.959Z,81.50
2018-12-01T10:20:42.431Z,80.80
2018-12-01T10:23:12.447Z,80.10
2018-12-01T10:25:41.818Z,79.40
2018-12-01T10:28:11.382Z,76.50
2018-12-01T10:30:40.797Z,75.70
2018-12-01T10:33:10.222Z,73.40
2018-12-01T10:35:39.627Z,71.70
2018-12-01T10:38:13.833Z,68.20
2018-12-01T10:40:43.254Z,67.50
2018-12-01T10:43:12.682Z,67.00
2018-12-01T10:45:42.114Z,66.80
2018-12-01T10:48:11.513Z,65.80
2018-12-01T10:50:40.946Z,65.00
2018-12-01T10:53:10.438Z,64.20
2018-12-01T10:55:44.919Z,64.90
2018-12-01T10:58:18.690Z,64.10
2018-12-01T11:00:54.672Z,61.20
2018-12-01T11:03:31.158Z,59.40
2018-12-01T11:06:01.912Z,59.60
2018-12-01T11:08:31.375Z,58.70
2018-12-01T11:11:00.806Z,58.20
2018-12-01T11:13:30.231Z,58.00
2018-12-01T11:15:59.651Z,57.50
2018-12-01T11:18:29.404Z,57.00
2018-12-01T11:20:58.774Z,56.90
2018-12-01T11:23:28.202Z,57.00
2018-12-01T11:25:57.602Z,56.20
2018-12-01T11:28:32.066Z,55.90
2018-12-01T11:31:01.504Z,54.90
2018-12-01T11:33:30.947Z,55.40
2018-12-01T11:36:00.355Z,56.00
2018-12-01T11:38:29.800Z,56.40
2018-12-01T11:40:59.198Z,56.20
2018-12-01T11:43:28.619Z,56.90
2018-12-01T11:45:58.051Z,57.30
2018-12-01T11:48:27.446Z,58.30
2018-12-01T11:50:56.851Z,58.90
2018-12-01T11:53:26.271Z,59.40
2018-12-01T11:55:55.684Z,60.90
2018-12-01T11:58:25.086Z,60.60
2018-12-01T12:00:54.498Z,60.70
2018-12-01T12:03:23.895Z,60.70
2018-12-01T12:05:53.307Z,59.90
2018-12-01T12:08:23.021Z,59.40
2018-12-01T12:10:52.899Z,60.00
2018-12-01T12:13:23.351Z,59.90
2018-12-01T12:15:52.847Z,60.30
2018-12-01T12:18:22.578Z,59.70
2018-12-01T12:20:52.041Z,60.40
2018-12-01T12:23:21.771Z,61.20
2018-12-01T12:25:51.247Z,61.30
2018-12-01T12:28:20.670Z,61.60
2018-12-01T12:30:50.085Z,62.10
2018-12-01T12:33:19.710Z,61.80
2018-12-01T12:35:49.133Z,62.40
2018-12-01T12:38:18.599Z,62.10
2018-12-01T12:40:48.302Z,62.00
2018-12-01T12:43:17.698Z,61.70
2018-12-01T12:45:47.098Z,61.40
2018-12-01T12:48:21.614Z,62.80
2018-12-01T12:50:53.240Z,63.00
2018-12-01T12:53:20.743Z,63.40
2018-12-01T12:55:50.158Z,62.60
2018-12-01T12:58:19.587Z,62.20
2018-12-01T13:00:49.018Z,62.10
2018-12-01T13:03:18.472Z,60.50
2018-12-01T13:05:52.970Z,60.70
2018-12-01T13:08:22.404Z,60.30
2018-12-01T13:10:51.862Z,61.80
2018-12-01T13:13:21.256Z,62.20
2018-12-01T13:15:50.664Z,62.20
2018-12-01T13:18:20.066Z,61.40
2018-12-01T13:20:49.800Z,61.60
2018-12-01T13:23:19.199Z,62.10
2018-12-01T13:25:48.610Z,62.30
2018-12-01T13:28:20.590Z,62.30
2018-12-01T13:30:56.066Z,61.90
2018-12-01T13:33:25.750Z,62.20
2018-12-01T13:35:55.790Z,63.50
2018-12-01T13:38:25.479Z,62.40
2018-12-01T13:40:54.912Z,62.60
2018-12-01T13:43:24.331Z,63.60
2018-12-01T13:45:53.739Z,63.80
2018-12-01T13:48:23.238Z,64.30
2018-12-01T13:50:52.651Z,63.10
2018-12-01T13:53:22.082Z,62.60
2018-12-01T13:55:53.190Z,62.70
2018-12-01T13:58:22.591Z,63.00
2018-12-01T14:00:52.012Z,63.60
2018-12-01T14:03:21.426Z,64.50
2018-12-01T14:05:50.827Z,65.00
2018-12-01T14:08:20.258Z,65.60
2018-12-01T14:10:50.971Z,65.10
2018-12-01T14:13:20.371Z,65.00
2018-12-01T14:15:49.794Z,64.80
2018-12-01T14:18:19.212Z,65.00
2018-12-01T14:20:48.622Z,65.40
2018-12-01T14:23:18.035Z,65.60
2018-12-01T14:25:52.710Z,66.00
2018-12-01T14:28:22.126Z,65.50
2018-12-01T14:30:52.007Z,65.70
2018-12-01T14:33:21.497Z,66.60
2018-12-01T14:35:50.898Z,66.60
2018-12-01T14:38:20.362Z,66.50
2018-12-01T14:40:50.416Z,66.60
2018-12-01T14:43:19.810Z,66.80
2018-12-01T14:45:49.986Z,66.60
2018-12-01T14:48:19.458Z,66.20
2018-12-01T14:50:49.059Z,66.50
2018-12-01T14:53:18.714Z,66.40
2018-12-01T14:55:48.106Z,67.00
2018-12-01T14:58:17.786Z,66.70
2018-12-01T15:00:47.190Z,65.80
2018-12-01T15:03:16.603Z,65.70
2018-12-01T15:05:46.122Z,65.60
2018-12-01T15:08:15.533Z,66.30
2018-12-01T15:10:45.066Z,67.00
2018-12-01T15:13:14.475Z,67.50
2018-12-01T15:15:48.935Z,67.50
2018-12-01T15:18:18.356Z,67.80
2018-12-01T15:20:47.759Z,67.60
2018-12-01T15:23:17.348Z,67.60
2018-12-01T15:25:47.050Z,67.20
2018-12-01T15:28:16.450Z,67.30
2018-12-01T15:30:45.854Z,67.70
2018-12-01T15:33:16.103Z,67.90
2018-12-01T15:35:46.425Z,68.10
2018-12-01T15:38:16.147Z,67.80
2018-12-01T15:40:47.907Z,67.50
2018-12-01T15:43:17.327Z,67.00
2018-12-01T15:45:46.762Z,66.70
2018-12-01T15:48:16.214Z,66.70
2018-12-01T15:50:45.607Z,66.60
2018-12-01T15:53:15.623Z,67.00
2018-12-01T15:55:45.040Z,67.30
2018-12-01T15:58:19.517Z,67.60
2018-12-01T16:00:48.914Z,67.90
2018-12-01T16:03:18.362Z,68.40
2018-12-01T16:05:47.770Z,70.60
2018-12-01T16:08:17.186Z,70.20
2018-12-01T16:10:51.733Z,70.50
2018-12-01T16:13:22.414Z,71.20
2018-12-01T16:16:02.070Z,71.60
2018-12-01T16:18:36.779Z,71.70
2018-12-01T16:21:06.262Z,73.70
2018-12-01T16:23:35.658Z,74.00
2018-12-01T16:26:05.657Z,74.10
2018-12-01T16:28:35.022Z,74.20
2018-12-01T16:31:04.726Z,74.80
2018-12-01T16:33:34.118Z,74.80
2018-12-01T16:36:03.526Z,75.10
2018-12-01T16:38:34.040Z,75.30
2018-12-01T16:41:09.314Z,75.50
2018-12-01T16:43:38.712Z,75.80
2018-12-01T16:46:08.121Z,76.20
2018-12-01T16:48:37.560Z,76.70
2018-12-01T16:51:06.963Z,76.60
2018-12-01T16:53:36.354Z,76.60
2018-12-01T16:56:05.827Z,76.40
2018-12-01T16:58:35.250Z,76.50
2018-12-01T17:01:04.743Z,76.10
2018-12-01T17:03:39.286Z,76.00
2018-12-01T17:06:12.107Z,75.10
2018-12-01T17:08:41.523Z,74.60
2018-12-01T17:11:11.027Z,74.70
2018-12-01T17:13:40.458Z,74.80
2018-12-01T17:16:09.882Z,74.70
2018-12-01T17:18:39.334Z,74.60
2018-12-01T17:21:08.739Z,74.30
2018-12-01T17:23:38.192Z,74.40
2018-12-01T17:26:08.355Z,74.40
2018-12-01T17:28:37.791Z,74.20
2018-12-01T17:31:07.442Z,74.40
2018-12-01T17:33:36.884Z,74.60
2018-12-01T17:36:06.434Z,74.90
2018-12-01T17:38:35.834Z,75.00
2018-12-01T17:41:09.689Z,75.30
2018-12-01T17:43:50.384Z,74.90
2018-12-01T17:46:19.790Z,74.30
2018-12-01T17:48:49.215Z,74.30
2018-12-01T17:51:18.756Z,74.30
2018-12-01T17:53:49.950Z,74.50
2018-12-01T17:56:19.696Z,74.30
2018-12-01T17:58:49.095Z,74.90
2018-12-01T18:01:18.498Z,74.30
2018-12-01T18:03:47.913Z,74.80
2018-12-01T18:06:17.350Z,75.20
2018-12-01T18:08:46.754Z,75.60
2018-12-01T18:11:16.550Z,75.60
2018-12-01T18:13:45.974Z,75.60
2018-12-01T18:16:15.362Z,75.00
2018-12-01T18:18:44.806Z,75.10
2018-12-01T18:21:14.197Z,75.60
2018-12-01T18:23:43.587Z,75.70
2018-12-01T18:26:12.994Z,76.40
2018-12-01T18:28:46.452Z,76.80
2018-12-01T18:31:20.883Z,76.70
2018-12-01T18:34:22.890Z,75.80
2018-12-01T18:36:52.330Z,75.80
2018-12-01T18:39:21.732Z,75.70
2018-12-01T18:41:51.122Z,75.90
2018-12-01T18:44:20.535Z,76.40
2018-12-01T18:46:49.951Z,76.50
2018-12-01T18:49:19.355Z,76.70
2018-12-01T18:51:48.763Z,76.60
2018-12-01T18:54:18.179Z,76.10
2018-12-01T18:56:47.571Z,75.90
2018-12-01T18:59:16.983Z,76.20
2018-12-01T19:01:48.394Z,76.20
2018-12-01T19:04:17.802Z,76.40
2018-12-01T19:06:47.610Z,76.10
2018-12-01T19:09:17.083Z,76.00
2018-12-01T19:11:46.478Z,76.30
2018-12-01T19:14:15.870Z,76.30
2018-12-01T19:16:45.275Z,76.40
2018-12-01T19:19:15.027Z,76.20
2018-12-01T19:21:44.418Z,76.00
2018-12-01T19:24:13.815Z,76.20
2018-12-01T19:26:43.246Z,76.00
2018-12-01T19:29:12.646Z,75.60
2018-12-01T19:31:42.062Z,75.30
2018-12-01T19:34:11.463Z,74.90
2018-12-01T19:36:40.874Z,75.10
2018-12-01T19:39:10.275Z,75.50
2018-12-01T19:41:39.678Z,75.50
2018-12-01T19:44:09.114Z,75.70
2018-12-01T19:46:38.502Z,75.50
2018-12-01T19:49:08.166Z,75.80
2018-12-01T19:51:37.574Z,75.90
2018-12-01T19:54:07.058Z,75.40
2018-12-01T19:56:36.474Z,75.80
2018-12-01T19:59:05.922Z,75.50
2018-12-01T20:01:35.370Z,75.50
2018-12-01T20:04:04.862Z,75.50
2018-12-01T20:06:34.275Z,75.50
2018-12-01T20:09:04.270Z,75.50
2018-12-01T20:11:33.683Z,75.10
2018-12-01T20:14:03.898Z,74.30
2018-12-01T20:16:35.786Z,73.90
2018-12-01T20:19:06.617Z,73.80
2018-12-01T20:21:36.015Z,73.80
2018-12-01T20:24:06.810Z,74.00
2018-12-01T20:26:36.898Z,73.80
2018-12-01T20:29:06.760Z,73.80
2018-12-01T20:31:36.122Z,73.60
2018-12-01T20:34:06.190Z,73.20
2018-12-01T20:36:39.102Z,73.10
2018-12-01T20:39:17.222Z,73.20
2018-12-01T20:41:46.614Z,73.50
2018-12-01T20:44:16.014Z,73.80
2018-12-01T20:46:45.427Z,74.30
2018-12-01T20:49:14.822Z,73.20
2018-12-01T20:51:44.238Z,73.40
2018-12-01T20:54:24.333Z,73.50
2018-12-01T20:56:57.158Z,73.10
2018-12-01T20:59:26.570Z,72.60
2018-12-01T21:02:01.048Z,73.20
2018-12-01T21:04:35.450Z,73.00
2018-12-01T21:07:09.897Z,72.70
2018-12-01T21:09:39.397Z,73.40
2018-12-01T21:12:14.456Z,73.00
2018-12-01T21:14:43.855Z,73.20
2018-12-01T21:17:13.255Z,73.50
2018-12-01T21:19:42.670Z,73.40
2018-12-01T21:22:12.079Z,73.60
2018-12-01T21:24:41.481Z,73.50
2018-12-01T21:27:11.170Z,73.20
2018-12-01T21:29:40.578Z,72.70
2018-12-01T21:32:09.986Z,72.80
2018-12-01T21:34:39.394Z,72.90
2018-12-01T21:37:08.799Z,72.70
2018-12-01T21:39:38.203Z,72.40
2018-12-01T21:42:07.634Z,72.10
2018-12-01T21:44:37.035Z,72.10
2018-12-01T21:47:06.823Z,72.00
2018-12-01T21:49:36.227Z,71.20
2018-12-01T21:52:06.036Z,71.10
2018-12-01T21:54:35.446Z,71.20
2018-12-01T21:57:05.788Z,70.90
2018-12-01T21:59:35.173Z,70.80
2018-12-01T22:02:09.651Z,70.70
2018-12-01T22:04:39.046Z,70.20
2018-12-01T22:07:08.567Z,69.90
2018-12-01T22:09:37.983Z,70.10
2018-12-01T22:12:07.396Z,70.40
2018-12-01T22:14:36.794Z,69.70
2018-12-01T22:17:07.244Z,70.10
2018-12-01T22:19:36.655Z,70.40
2018-12-01T22:22:06.091Z,70.40
2018-12-01T22:24:35.461Z,70.20
2018-12-01T22:27:04.905Z,70.50
2018-12-01T22:29:34.298Z,70.50
2018-12-01T22:32:03.746Z,70.40
2018-12-01T22:34:33.114Z,70.00
2018-12-01T22:37:02.514Z,69.20
2018-12-01T22:39:32.010Z,69.00
2018-12-01T22:42:01.412Z,69.10
2018-12-01T22:44:35.822Z,69.10
2018-12-01T22:47:05.601Z,69.10
2018-12-01T22:49:35.025Z,68.00
2018-12-01T22:52:04.866Z,67.70
2018-12-01T22:54:34.234Z,68.20
2018-12-01T22:57:03.734Z,68.10
2018-12-01T22:59:33.102Z,67.40
2018-12-01T23:02:02.494Z,67.20
2018-12-01T23:04:31.912Z,67.10
2018-12-01T23:07:01.302Z,67.50
2018-12-01T23:09:31.929Z,67.00
2018-12-01T23:12:01.322Z,66.90
2018-12-01T23:14:30.728Z,67.20
2018-12-01T23:17:00.136Z,67.00
2018-12-01T23:19:29.546Z,67.20
2018-12-01T23:21:58.954Z,66.80
2018-12-01T23:24:28.370Z,67.00
2018-12-01T23:26:57.771Z,67.20
2018-12-01T23:29:27.176Z,67.30
2018-12-01T23:31:56.571Z,67.60
2018-12-01T23:34:25.963Z,68.00
2018-12-01T23:36:55.368Z,67.90
2018-12-01T23:39:24.775Z,67.80
2018-12-01T23:41:54.235Z,67.40
2018-12-01T23:44:28.923Z,67.40
2018-12-01T23:46:58.317Z,67.50
2018-12-01T23:49:27.725Z,67.40
2018-12-01T23:51:57.135Z,67.30
2018-12-01T23:54:26.530Z,67.30
2018-12-01T23:56:55.930Z,67.50
2018-12-01T23:59:25.338Z,67.00
